sensor_id;sensor_type;location;lat;lon;timestamp;P1;durP1;ratioP1;P2;durP2;ratioP2
12350;SDS011;6240;51.538;7.696;2022-10-03T00:00:31;12.43;;;4.50;;
12350;SDS011;6240;51.538;7.696;2022-10-03T00:05:52;10.97;;;4.43;;
12350;SDS011;6240;51.538;7.696;2022-10-03T00:08:29;12.90;;;4.30;;
12350;SDS011;6240;51.538;7.696;2022-10-03T00:11:01;16.50;;;4.97;;
12350;SDS011;6240;51.538;7.696;2022-10-03T00:13:33;14.00;;;4.43;;
12350;SDS011;6240;51.538;7.696;2022-10-03T00:16:07;11.00;;;4.17;;
12350;SDS011;6240;51.538;7.696;2022-10-03T00:18:39;16.30;;;4.67;;
12350;SDS011;6240;51.538;7.696;2022-10-03T00:21:13;16.80;;;4.93;;
12350;SDS011;6240;51.538;7.696;2022-10-03T00:23:45;17.63;;;5.20;;
12350;SDS011;6240;51.538;7.696;2022-10-03T00:26:16;14.67;;;4.80;;
12350;SDS011;6240;51.538;7.696;2022-10-03T00:28:57;15.87;;;5.50;;
12350;SDS011;6240;51.538;7.696;2022-10-03T00:31:34;14.93;;;5.10;;
12350;SDS011;6240;51.538;7.696;2022-10-03T00:34:06;12.47;;;4.87;;
12350;SDS011;6240;51.538;7.696;2022-10-03T00:36:38;17.20;;;4.83;;
12350;SDS011;6240;51.538;7.696;2022-10-03T00:39:30;11.87;;;4.40;;
12350;SDS011;6240;51.538;7.696;2022-10-03T00:42:10;15.27;;;4.37;;
12350;SDS011;6240;51.538;7.696;2022-10-03T00:44:47;18.57;;;4.63;;
12350;SDS011;6240;51.538;7.696;2022-10-03T00:47:26;15.33;;;4.57;;
12350;SDS011;6240;51.538;7.696;2022-10-03T00:50:04;12.07;;;4.57;;
12350;SDS011;6240;51.538;7.696;2022-10-03T00:52:43;11.27;;;4.00;;
12350;SDS011;6240;51.538;7.696;2022-10-03T00:55:14;15.77;;;4.30;;
12350;SDS011;6240;51.538;7.696;2022-10-03T00:57:49;14.90;;;4.70;;
12350;SDS011;6240;51.538;7.696;2022-10-03T01:00:23;12.73;;;4.27;;
12350;SDS011;6240;51.538;7.696;2022-10-03T01:05:41;11.77;;;4.37;;
12350;SDS011;6240;51.538;7.696;2022-10-03T01:08:24;14.77;;;4.80;;
12350;SDS011;6240;51.538;7.696;2022-10-03T01:10:55;15.17;;;4.17;;
12350;SDS011;6240;51.538;7.696;2022-10-03T01:13:28;13.80;;;4.47;;
12350;SDS011;6240;51.538;7.696;2022-10-03T01:15:59;10.10;;;4.43;;
12350;SDS011;6240;51.538;7.696;2022-10-03T01:18:33;12.57;;;4.37;;
12350;SDS011;6240;51.538;7.696;2022-10-03T01:21:09;15.20;;;4.47;;
12350;SDS011;6240;51.538;7.696;2022-10-03T01:23:44;14.07;;;4.10;;
12350;SDS011;6240;51.538;7.696;2022-10-03T01:26:21;11.17;;;4.23;;
12350;SDS011;6240;51.538;7.696;2022-10-03T01:28:53;11.67;;;4.10;;
12350;SDS011;6240;51.538;7.696;2022-10-03T01:31:43;10.87;;;4.30;;
12350;SDS011;6240;51.538;7.696;2022-10-03T01:34:15;12.43;;;4.00;;
12350;SDS011;6240;51.538;7.696;2022-10-03T01:36:52;12.70;;;4.73;;
12350;SDS011;6240;51.538;7.696;2022-10-03T01:39:21;14.03;;;4.70;;
12350;SDS011;6240;51.538;7.696;2022-10-03T01:41:52;11.93;;;5.30;;
12350;SDS011;6240;51.538;7.696;2022-10-03T01:44:27;13.67;;;4.33;;
12350;SDS011;6240;51.538;7.696;2022-10-03T01:46:57;15.33;;;4.93;;
12350;SDS011;6240;51.538;7.696;2022-10-03T01:49:33;13.83;;;5.00;;
12350;SDS011;6240;51.538;7.696;2022-10-03T01:52:03;20.40;;;5.30;;
12350;SDS011;6240;51.538;7.696;2022-10-03T01:54:33;17.13;;;5.53;;
12350;SDS011;6240;51.538;7.696;2022-10-03T01:57:07;13.07;;;5.13;;
12350;SDS011;6240;51.538;7.696;2022-10-03T01:59:38;14.07;;;4.97;;
12350;SDS011;6240;51.538;7.696;2022-10-03T02:02:09;16.17;;;4.77;;
12350;SDS011;6240;51.538;7.696;2022-10-03T02:04:44;11.63;;;5.17;;
12350;SDS011;6240;51.538;7.696;2022-10-03T02:07:14;11.73;;;4.87;;
12350;SDS011;6240;51.538;7.696;2022-10-03T02:09:49;14.00;;;4.93;;
12350;SDS011;6240;51.538;7.696;2022-10-03T02:12:22;16.67;;;5.07;;
12350;SDS011;6240;51.538;7.696;2022-10-03T02:14:53;11.77;;;5.20;;
12350;SDS011;6240;51.538;7.696;2022-10-03T02:17:26;14.50;;;5.17;;
12350;SDS011;6240;51.538;7.696;2022-10-03T02:19:56;12.87;;;4.77;;
12350;SDS011;6240;51.538;7.696;2022-10-03T02:22:30;17.40;;;5.80;;
12350;SDS011;6240;51.538;7.696;2022-10-03T02:25:03;17.13;;;4.73;;
12350;SDS011;6240;51.538;7.696;2022-10-03T02:30:18;20.87;;;5.13;;
12350;SDS011;6240;51.538;7.696;2022-10-03T02:35:46;13.37;;;4.53;;
12350;SDS011;6240;51.538;7.696;2022-10-03T02:38:19;15.90;;;5.27;;
12350;SDS011;6240;51.538;7.696;2022-10-03T02:40:54;19.70;;;5.57;;
12350;SDS011;6240;51.538;7.696;2022-10-03T02:43:43;11.23;;;4.43;;
12350;SDS011;6240;51.538;7.696;2022-10-03T02:46:31;22.07;;;5.63;;
12350;SDS011;6240;51.538;7.696;2022-10-03T02:52:05;14.73;;;5.07;;
12350;SDS011;6240;51.538;7.696;2022-10-03T02:57:30;15.50;;;5.63;;
12350;SDS011;6240;51.538;7.696;2022-10-03T03:00:06;14.03;;;5.00;;
12350;SDS011;6240;51.538;7.696;2022-10-03T03:05:22;14.73;;;5.57;;
12350;SDS011;6240;51.538;7.696;2022-10-03T03:07:57;15.83;;;5.27;;
12350;SDS011;6240;51.538;7.696;2022-10-03T03:10:36;15.53;;;4.80;;
12350;SDS011;6240;51.538;7.696;2022-10-03T03:16:12;18.37;;;5.67;;
12350;SDS011;6240;51.538;7.696;2022-10-03T03:18:43;15.33;;;5.03;;
12350;SDS011;6240;51.538;7.696;2022-10-03T03:21:19;13.63;;;5.87;;
12350;SDS011;6240;51.538;7.696;2022-10-03T03:23:59;13.67;;;4.77;;
12350;SDS011;6240;51.538;7.696;2022-10-03T03:26:34;12.63;;;5.30;;
12350;SDS011;6240;51.538;7.696;2022-10-03T03:29:08;18.57;;;5.47;;
12350;SDS011;6240;51.538;7.696;2022-10-03T03:31:41;17.47;;;5.60;;
12350;SDS011;6240;51.538;7.696;2022-10-03T03:34:12;12.83;;;5.20;;
12350;SDS011;6240;51.538;7.696;2022-10-03T03:36:44;16.03;;;5.47;;
12350;SDS011;6240;51.538;7.696;2022-10-03T03:39:18;17.87;;;6.03;;
12350;SDS011;6240;51.538;7.696;2022-10-03T03:41:55;18.47;;;5.87;;
12350;SDS011;6240;51.538;7.696;2022-10-03T03:44:44;26.43;;;7.73;;
12350;SDS011;6240;51.538;7.696;2022-10-03T03:47:20;15.97;;;6.43;;
12350;SDS011;6240;51.538;7.696;2022-10-03T03:49:55;14.00;;;5.40;;
12350;SDS011;6240;51.538;7.696;2022-10-03T03:52:35;12.27;;;5.63;;
12350;SDS011;6240;51.538;7.696;2022-10-03T03:55:12;14.43;;;6.27;;
12350;SDS011;6240;51.538;7.696;2022-10-03T03:57:46;15.53;;;5.67;;
12350;SDS011;6240;51.538;7.696;2022-10-03T04:00:18;17.00;;;6.27;;
12350;SDS011;6240;51.538;7.696;2022-10-03T04:05:41;18.43;;;6.67;;
12350;SDS011;6240;51.538;7.696;2022-10-03T04:08:18;14.40;;;6.30;;
12350;SDS011;6240;51.538;7.696;2022-10-03T04:10:57;22.43;;;6.33;;
12350;SDS011;6240;51.538;7.696;2022-10-03T04:13:49;17.73;;;6.13;;
12350;SDS011;6240;51.538;7.696;2022-10-03T04:16:26;22.00;;;6.60;;
12350;SDS011;6240;51.538;7.696;2022-10-03T04:19:18;19.53;;;5.97;;
12350;SDS011;6240;51.538;7.696;2022-10-03T04:21:53;17.40;;;6.30;;
12350;SDS011;6240;51.538;7.696;2022-10-03T04:24:30;16.00;;;6.80;;
12350;SDS011;6240;51.538;7.696;2022-10-03T04:27:07;11.10;;;6.10;;
12350;SDS011;6240;51.538;7.696;2022-10-03T04:29:43;16.10;;;6.20;;
12350;SDS011;6240;51.538;7.696;2022-10-03T04:32:16;16.33;;;6.57;;
12350;SDS011;6240;51.538;7.696;2022-10-03T04:34:49;14.27;;;6.07;;
12350;SDS011;6240;51.538;7.696;2022-10-03T04:37:20;14.37;;;5.60;;
12350;SDS011;6240;51.538;7.696;2022-10-03T04:39:54;19.10;;;6.10;;
12350;SDS011;6240;51.538;7.696;2022-10-03T04:42:26;19.37;;;6.70;;
12350;SDS011;6240;51.538;7.696;2022-10-03T04:45:13;16.53;;;6.40;;
12350;SDS011;6240;51.538;7.696;2022-10-03T04:47:46;17.33;;;6.50;;
12350;SDS011;6240;51.538;7.696;2022-10-03T04:50:22;17.00;;;7.30;;
12350;SDS011;6240;51.538;7.696;2022-10-03T04:52:55;15.87;;;6.60;;
12350;SDS011;6240;51.538;7.696;2022-10-03T04:55:26;17.07;;;6.30;;
12350;SDS011;6240;51.538;7.696;2022-10-03T04:58:00;16.93;;;6.53;;
12350;SDS011;6240;51.538;7.696;2022-10-03T05:00:29;14.73;;;6.57;;
12350;SDS011;6240;51.538;7.696;2022-10-03T05:03:02;18.90;;;6.53;;
12350;SDS011;6240;51.538;7.696;2022-10-03T05:05:37;17.60;;;7.07;;
12350;SDS011;6240;51.538;7.696;2022-10-03T05:08:11;18.90;;;7.20;;
12350;SDS011;6240;51.538;7.696;2022-10-03T05:10:49;18.10;;;6.80;;
12350;SDS011;6240;51.538;7.696;2022-10-03T05:13:19;13.90;;;6.55;;
12350;SDS011;6240;51.538;7.696;2022-10-03T05:15:50;20.83;;;7.07;;
12350;SDS011;6240;51.538;7.696;2022-10-03T05:18:21;18.63;;;6.67;;
12350;SDS011;6240;51.538;7.696;2022-10-03T05:20:53;18.87;;;7.23;;
12350;SDS011;6240;51.538;7.696;2022-10-03T05:23:27;16.70;;;6.73;;
12350;SDS011;6240;51.538;7.696;2022-10-03T05:25:59;21.60;;;7.13;;
12350;SDS011;6240;51.538;7.696;2022-10-03T05:28:33;14.90;;;6.63;;
12350;SDS011;6240;51.538;7.696;2022-10-03T05:31:05;13.60;;;6.57;;
12350;SDS011;6240;51.538;7.696;2022-10-03T05:33:39;15.67;;;6.63;;
12350;SDS011;6240;51.538;7.696;2022-10-03T05:36:10;18.87;;;7.43;;
12350;SDS011;6240;51.538;7.696;2022-10-03T05:38:48;15.63;;;7.20;;
12350;SDS011;6240;51.538;7.696;2022-10-03T05:41:21;15.90;;;6.23;;
12350;SDS011;6240;51.538;7.696;2022-10-03T05:43:54;16.80;;;6.87;;
12350;SDS011;6240;51.538;7.696;2022-10-03T05:46:29;18.90;;;6.70;;
12350;SDS011;6240;51.538;7.696;2022-10-03T05:49:03;10.93;;;6.87;;
12350;SDS011;6240;51.538;7.696;2022-10-03T05:51:42;16.20;;;6.73;;
12350;SDS011;6240;51.538;7.696;2022-10-03T05:54:26;15.60;;;6.83;;
12350;SDS011;6240;51.538;7.696;2022-10-03T05:57:01;17.13;;;6.63;;
12350;SDS011;6240;51.538;7.696;2022-10-03T05:59:41;19.73;;;7.50;;
12350;SDS011;6240;51.538;7.696;2022-10-03T06:05:11;16.13;;;7.23;;
12350;SDS011;6240;51.538;7.696;2022-10-03T06:07:44;16.50;;;6.83;;
12350;SDS011;6240;51.538;7.696;2022-10-03T06:10:21;16.63;;;6.80;;
12350;SDS011;6240;51.538;7.696;2022-10-03T06:12:58;16.87;;;6.67;;
12350;SDS011;6240;51.538;7.696;2022-10-03T06:15:35;14.40;;;6.53;;
12350;SDS011;6240;51.538;7.696;2022-10-03T06:18:20;13.73;;;6.13;;
12350;SDS011;6240;51.538;7.696;2022-10-03T06:26:44;15.87;;;6.77;;
12350;SDS011;6240;51.538;7.696;2022-10-03T06:32:20;13.97;;;6.60;;
12350;SDS011;6240;51.538;7.696;2022-10-03T06:35:08;16.23;;;6.70;;
12350;SDS011;6240;51.538;7.696;2022-10-03T06:40:32;16.00;;;6.63;;
12350;SDS011;6240;51.538;7.696;2022-10-03T06:43:09;20.70;;;6.87;;
12350;SDS011;6240;51.538;7.696;2022-10-03T06:45:55;18.23;;;6.87;;
12350;SDS011;6240;51.538;7.696;2022-10-03T06:48:33;19.63;;;7.13;;
12350;SDS011;6240;51.538;7.696;2022-10-03T06:51:16;12.60;;;6.00;;
12350;SDS011;6240;51.538;7.696;2022-10-03T06:54:01;17.07;;;6.97;;
12350;SDS011;6240;51.538;7.696;2022-10-03T06:59:21;14.07;;;6.67;;
12350;SDS011;6240;51.538;7.696;2022-10-03T07:01:53;19.13;;;6.97;;
12350;SDS011;6240;51.538;7.696;2022-10-03T07:07:15;15.67;;;6.13;;
12350;SDS011;6240;51.538;7.696;2022-10-03T07:09:59;14.30;;;6.23;;
12350;SDS011;6240;51.538;7.696;2022-10-03T07:12:35;18.63;;;5.87;;
12350;SDS011;6240;51.538;7.696;2022-10-03T07:15:14;15.07;;;6.10;;
12350;SDS011;6240;51.538;7.696;2022-10-03T07:18:02;14.80;;;5.73;;
12350;SDS011;6240;51.538;7.696;2022-10-03T07:29:18;14.20;;;5.50;;
12350;SDS011;6240;51.538;7.696;2022-10-03T07:31:55;11.70;;;5.50;;
12350;SDS011;6240;51.538;7.696;2022-10-03T07:34:32;16.40;;;5.47;;
12350;SDS011;6240;51.538;7.696;2022-10-03T07:37:09;17.27;;;5.60;;
12350;SDS011;6240;51.538;7.696;2022-10-03T07:40:11;15.07;;;5.33;;
12350;SDS011;6240;51.538;7.696;2022-10-03T07:42:59;14.47;;;5.00;;
12350;SDS011;6240;51.538;7.696;2022-10-03T07:45:35;12.57;;;5.20;;
12350;SDS011;6240;51.538;7.696;2022-10-03T07:48:09;9.97;;;4.90;;
12350;SDS011;6240;51.538;7.696;2022-10-03T07:56:13;11.07;;;4.87;;
12350;SDS011;6240;51.538;7.696;2022-10-03T07:59:00;16.20;;;5.07;;
12350;SDS011;6240;51.538;7.696;2022-10-03T08:01:37;10.90;;;5.50;;
12350;SDS011;6240;51.538;7.696;2022-10-03T08:04:16;12.40;;;5.20;;
12350;SDS011;6240;51.538;7.696;2022-10-03T08:06:50;14.63;;;5.53;;
12350;SDS011;6240;51.538;7.696;2022-10-03T08:12:18;13.00;;;5.00;;
12350;SDS011;6240;51.538;7.696;2022-10-03T08:14:54;10.63;;;5.40;;
12350;SDS011;6240;51.538;7.696;2022-10-03T08:17:35;11.43;;;5.57;;
12350;SDS011;6240;51.538;7.696;2022-10-03T08:23:01;17.33;;;5.33;;
12350;SDS011;6240;51.538;7.696;2022-10-03T08:25:35;11.50;;;5.03;;
12350;SDS011;6240;51.538;7.696;2022-10-03T08:31:17;11.50;;;5.27;;
12350;SDS011;6240;51.538;7.696;2022-10-03T08:39:25;12.33;;;4.80;;
12350;SDS011;6240;51.538;7.696;2022-10-03T08:53:23;17.23;;;5.20;;
12350;SDS011;6240;51.538;7.696;2022-10-03T08:55:59;14.87;;;4.63;;
12350;SDS011;6240;51.538;7.696;2022-10-03T09:01:23;10.83;;;3.90;;
12350;SDS011;6240;51.538;7.696;2022-10-03T09:03:57;11.17;;;3.93;;
12350;SDS011;6240;51.538;7.696;2022-10-03T09:06:50;10.60;;;3.83;;
12350;SDS011;6240;51.538;7.696;2022-10-03T09:09:27;12.17;;;4.27;;
12350;SDS011;6240;51.538;7.696;2022-10-03T09:12:11;13.10;;;4.00;;
12350;SDS011;6240;51.538;7.696;2022-10-03T09:15:00;10.27;;;4.30;;
12350;SDS011;6240;51.538;7.696;2022-10-03T09:23:21;15.77;;;4.73;;
12350;SDS011;6240;51.538;7.696;2022-10-03T09:25:57;12.07;;;4.30;;
12350;SDS011;6240;51.538;7.696;2022-10-03T09:28:41;16.43;;;4.87;;
12350;SDS011;6240;51.538;7.696;2022-10-03T09:34:09;10.67;;;4.70;;
12350;SDS011;6240;51.538;7.696;2022-10-03T09:37:01;15.43;;;4.97;;
12350;SDS011;6240;51.538;7.696;2022-10-03T09:42:28;13.90;;;4.60;;
12350;SDS011;6240;51.538;7.696;2022-10-03T09:45:10;10.93;;;4.10;;
12350;SDS011;6240;51.538;7.696;2022-10-03T09:47:50;15.20;;;5.33;;
12350;SDS011;6240;51.538;7.696;2022-10-03T09:50:41;14.57;;;4.47;;
12350;SDS011;6240;51.538;7.696;2022-10-03T09:53:38;10.97;;;4.37;;
12350;SDS011;6240;51.538;7.696;2022-10-03T09:58:57;10.67;;;3.90;;
12350;SDS011;6240;51.538;7.696;2022-10-03T10:01:31;16.00;;;4.73;;
12350;SDS011;6240;51.538;7.696;2022-10-03T10:04:09;12.53;;;3.83;;
12350;SDS011;6240;51.538;7.696;2022-10-03T10:06:55;11.57;;;3.17;;
12350;SDS011;6240;51.538;7.696;2022-10-03T10:09:38;13.60;;;3.70;;
12350;SDS011;6240;51.538;7.696;2022-10-03T10:15:02;6.80;;;2.67;;
12350;SDS011;6240;51.538;7.696;2022-10-03T10:17:40;10.17;;;3.03;;
12350;SDS011;6240;51.538;7.696;2022-10-03T10:20:18;12.50;;;3.60;;
12350;SDS011;6240;51.538;7.696;2022-10-03T10:23:10;7.80;;;2.43;;
12350;SDS011;6240;51.538;7.696;2022-10-03T10:25:49;9.23;;;2.50;;
12350;SDS011;6240;51.538;7.696;2022-10-03T10:28:25;10.37;;;2.93;;
12350;SDS011;6240;51.538;7.696;2022-10-03T10:31:13;9.97;;;2.37;;
12350;SDS011;6240;51.538;7.696;2022-10-03T10:36:45;10.67;;;2.80;;
12350;SDS011;6240;51.538;7.696;2022-10-03T10:42:10;8.03;;;2.50;;
12350;SDS011;6240;51.538;7.696;2022-10-03T10:45:00;11.57;;;2.50;;
12350;SDS011;6240;51.538;7.696;2022-10-03T10:47:44;8.77;;;2.50;;
12350;SDS011;6240;51.538;7.696;2022-10-03T10:50:27;9.10;;;2.90;;
12350;SDS011;6240;51.538;7.696;2022-10-03T10:59:00;8.30;;;2.27;;
12350;SDS011;6240;51.538;7.696;2022-10-03T11:01:58;5.80;;;2.17;;
12350;SDS011;6240;51.538;7.696;2022-10-03T11:04:40;7.63;;;2.30;;
12350;SDS011;6240;51.538;7.696;2022-10-03T11:16:01;8.27;;;2.47;;
12350;SDS011;6240;51.538;7.696;2022-10-03T11:21:46;6.27;;;2.33;;
12350;SDS011;6240;51.538;7.696;2022-10-03T11:27:29;5.47;;;1.90;;
12350;SDS011;6240;51.538;7.696;2022-10-03T11:30:03;4.67;;;1.67;;
12350;SDS011;6240;51.538;7.696;2022-10-03T11:35:27;5.90;;;2.00;;
12350;SDS011;6240;51.538;7.696;2022-10-03T11:37:59;6.57;;;1.97;;
12350;SDS011;6240;51.538;7.696;2022-10-03T11:40:30;7.03;;;1.90;;
12350;SDS011;6240;51.538;7.696;2022-10-03T11:43:05;7.13;;;2.13;;
12350;SDS011;6240;51.538;7.696;2022-10-03T11:45:38;5.77;;;2.10;;
12350;SDS011;6240;51.538;7.696;2022-10-03T11:48:21;7.80;;;2.23;;
12350;SDS011;6240;51.538;7.696;2022-10-03T11:50:53;4.30;;;1.57;;
12350;SDS011;6240;51.538;7.696;2022-10-03T11:53:33;7.87;;;2.20;;
12350;SDS011;6240;51.538;7.696;2022-10-03T11:56:17;5.80;;;1.90;;
12350;SDS011;6240;51.538;7.696;2022-10-03T11:58:51;6.90;;;2.20;;
12350;SDS011;6240;51.538;7.696;2022-10-03T12:01:25;7.93;;;2.90;;
12350;SDS011;6240;51.538;7.696;2022-10-03T12:03:58;5.70;;;2.50;;
12350;SDS011;6240;51.538;7.696;2022-10-03T12:06:32;11.50;;;5.00;;
12350;SDS011;6240;51.538;7.696;2022-10-03T12:09:20;32.90;;;15.67;;
12350;SDS011;6240;51.538;7.696;2022-10-03T12:11:54;7.00;;;2.07;;
12350;SDS011;6240;51.538;7.696;2022-10-03T12:14:23;4.37;;;1.33;;
12350;SDS011;6240;51.538;7.696;2022-10-03T12:16:59;4.40;;;2.07;;
12350;SDS011;6240;51.538;7.696;2022-10-03T12:19:29;5.10;;;1.60;;
12350;SDS011;6240;51.538;7.696;2022-10-03T12:22:00;3.07;;;1.67;;
12350;SDS011;6240;51.538;7.696;2022-10-03T12:24:31;3.50;;;1.40;;
12350;SDS011;6240;51.538;7.696;2022-10-03T12:27:03;4.67;;;1.40;;
12350;SDS011;6240;51.538;7.696;2022-10-03T12:29:32;5.57;;;1.50;;
12350;SDS011;6240;51.538;7.696;2022-10-03T12:32:13;7.20;;;1.63;;
12350;SDS011;6240;51.538;7.696;2022-10-03T12:34:42;4.97;;;1.70;;
12350;SDS011;6240;51.538;7.696;2022-10-03T12:40:03;5.60;;;1.53;;
12350;SDS011;6240;51.538;7.696;2022-10-03T12:42:32;6.57;;;1.80;;
12350;SDS011;6240;51.538;7.696;2022-10-03T12:45:03;7.73;;;1.77;;
12350;SDS011;6240;51.538;7.696;2022-10-03T12:47:39;5.37;;;1.87;;
12350;SDS011;6240;51.538;7.696;2022-10-03T12:50:12;3.60;;;1.43;;
12350;SDS011;6240;51.538;7.696;2022-10-03T12:52:44;4.67;;;1.80;;
12350;SDS011;6240;51.538;7.696;2022-10-03T12:55:21;5.27;;;1.53;;
12350;SDS011;6240;51.538;7.696;2022-10-03T12:57:51;4.47;;;1.50;;
12350;SDS011;6240;51.538;7.696;2022-10-03T13:00:26;4.73;;;1.70;;
12350;SDS011;6240;51.538;7.696;2022-10-03T13:03:02;4.37;;;1.70;;
12350;SDS011;6240;51.538;7.696;2022-10-03T13:05:38;5.07;;;1.70;;
12350;SDS011;6240;51.538;7.696;2022-10-03T13:08:21;4.13;;;1.67;;
12350;SDS011;6240;51.538;7.696;2022-10-03T13:10:55;5.13;;;1.63;;
12350;SDS011;6240;51.538;7.696;2022-10-03T13:13:26;5.30;;;1.70;;
12350;SDS011;6240;51.538;7.696;2022-10-03T13:18:49;4.43;;;1.80;;
12350;SDS011;6240;51.538;7.696;2022-10-03T13:21:19;4.97;;;1.73;;
12350;SDS011;6240;51.538;7.696;2022-10-03T13:23:48;4.17;;;1.60;;
12350;SDS011;6240;51.538;7.696;2022-10-03T13:26:19;5.80;;;1.50;;
12350;SDS011;6240;51.538;7.696;2022-10-03T13:29:05;5.43;;;1.70;;
12350;SDS011;6240;51.538;7.696;2022-10-03T13:31:37;3.63;;;1.57;;
12350;SDS011;6240;51.538;7.696;2022-10-03T13:34:11;6.23;;;1.70;;
12350;SDS011;6240;51.538;7.696;2022-10-03T13:36:41;6.33;;;1.77;;
12350;SDS011;6240;51.538;7.696;2022-10-03T13:39:11;6.33;;;1.70;;
12350;SDS011;6240;51.538;7.696;2022-10-03T13:41:44;2.73;;;1.30;;
12350;SDS011;6240;51.538;7.696;2022-10-03T13:44:18;3.77;;;1.37;;
12350;SDS011;6240;51.538;7.696;2022-10-03T13:46:48;3.60;;;1.53;;
12350;SDS011;6240;51.538;7.696;2022-10-03T13:49:21;5.67;;;1.63;;
12350;SDS011;6240;51.538;7.696;2022-10-03T13:51:50;6.00;;;1.67;;
12350;SDS011;6240;51.538;7.696;2022-10-03T13:54:26;5.07;;;1.70;;
12350;SDS011;6240;51.538;7.696;2022-10-03T13:57:06;4.47;;;1.67;;
12350;SDS011;6240;51.538;7.696;2022-10-03T13:59:42;5.37;;;1.50;;
12350;SDS011;6240;51.538;7.696;2022-10-03T14:02:16;3.67;;;1.57;;
12350;SDS011;6240;51.538;7.696;2022-10-03T14:04:50;2.60;;;1.30;;
12350;SDS011;6240;51.538;7.696;2022-10-03T14:07:23;3.00;;;1.50;;
12350;SDS011;6240;51.538;7.696;2022-10-03T14:10:01;4.90;;;1.23;;
12350;SDS011;6240;51.538;7.696;2022-10-03T14:12:37;2.70;;;1.30;;
12350;SDS011;6240;51.538;7.696;2022-10-03T14:15:15;4.93;;;1.60;;
12350;SDS011;6240;51.538;7.696;2022-10-03T14:17:45;5.30;;;2.13;;
12350;SDS011;6240;51.538;7.696;2022-10-03T14:20:18;6.67;;;1.80;;
12350;SDS011;6240;51.538;7.696;2022-10-03T14:22:50;3.67;;;1.13;;
12350;SDS011;6240;51.538;7.696;2022-10-03T14:25:24;4.30;;;1.50;;
12350;SDS011;6240;51.538;7.696;2022-10-03T14:28:05;5.73;;;1.80;;
12350;SDS011;6240;51.538;7.696;2022-10-03T14:30:41;5.77;;;1.43;;
12350;SDS011;6240;51.538;7.696;2022-10-03T14:33:14;4.37;;;1.50;;
12350;SDS011;6240;51.538;7.696;2022-10-03T14:35:50;3.33;;;1.50;;
12350;SDS011;6240;51.538;7.696;2022-10-03T14:38:23;3.97;;;1.40;;
12350;SDS011;6240;51.538;7.696;2022-10-03T14:41:14;4.17;;;1.70;;
12350;SDS011;6240;51.538;7.696;2022-10-03T14:43:47;5.80;;;1.90;;
12350;SDS011;6240;51.538;7.696;2022-10-03T14:46:17;5.13;;;1.27;;
12350;SDS011;6240;51.538;7.696;2022-10-03T14:48:45;4.47;;;1.33;;
12350;SDS011;6240;51.538;7.696;2022-10-03T14:51:17;4.50;;;1.53;;
12350;SDS011;6240;51.538;7.696;2022-10-03T14:53:46;4.03;;;1.27;;
12350;SDS011;6240;51.538;7.696;2022-10-03T14:56:19;4.17;;;1.47;;
12350;SDS011;6240;51.538;7.696;2022-10-03T14:58:55;3.23;;;1.30;;
12350;SDS011;6240;51.538;7.696;2022-10-03T15:01:28;6.30;;;1.60;;
12350;SDS011;6240;51.538;7.696;2022-10-03T15:03:59;3.87;;;1.40;;
12350;SDS011;6240;51.538;7.696;2022-10-03T15:06:32;3.23;;;1.40;;
12350;SDS011;6240;51.538;7.696;2022-10-03T15:09:01;4.20;;;1.80;;
12350;SDS011;6240;51.538;7.696;2022-10-03T15:11:31;4.53;;;1.40;;
12350;SDS011;6240;51.538;7.696;2022-10-03T15:14:01;3.37;;;1.60;;
12350;SDS011;6240;51.538;7.696;2022-10-03T15:16:31;7.13;;;1.50;;
12350;SDS011;6240;51.538;7.696;2022-10-03T15:19:02;4.00;;;1.40;;
12350;SDS011;6240;51.538;7.696;2022-10-03T15:21:31;7.43;;;1.80;;
12350;SDS011;6240;51.538;7.696;2022-10-03T15:23:59;5.03;;;1.67;;
12350;SDS011;6240;51.538;7.696;2022-10-03T15:26:28;3.23;;;1.70;;
12350;SDS011;6240;51.538;7.696;2022-10-03T15:28:59;3.77;;;1.50;;
12350;SDS011;6240;51.538;7.696;2022-10-03T15:31:33;6.93;;;1.70;;
12350;SDS011;6240;51.538;7.696;2022-10-03T15:34:00;5.70;;;1.30;;
12350;SDS011;6240;51.538;7.696;2022-10-03T15:36:29;6.73;;;2.47;;
12350;SDS011;6240;51.538;7.696;2022-10-03T15:39:00;5.53;;;1.95;;
12350;SDS011;6240;51.538;7.696;2022-10-03T15:41:30;3.97;;;1.43;;
12350;SDS011;6240;51.538;7.696;2022-10-03T15:44:00;4.40;;;1.60;;
12350;SDS011;6240;51.538;7.696;2022-10-03T15:46:31;3.67;;;1.77;;
12350;SDS011;6240;51.538;7.696;2022-10-03T15:49:01;3.90;;;1.50;;
12350;SDS011;6240;51.538;7.696;2022-10-03T15:51:29;5.10;;;1.60;;
12350;SDS011;6240;51.538;7.696;2022-10-03T15:53:58;4.93;;;1.30;;
12350;SDS011;6240;51.538;7.696;2022-10-03T15:56:28;4.38;;;1.58;;
12350;SDS011;6240;51.538;7.696;2022-10-03T15:58:59;5.77;;;1.67;;
12350;SDS011;6240;51.538;7.696;2022-10-03T16:01:30;5.77;;;1.50;;
12350;SDS011;6240;51.538;7.696;2022-10-03T16:03:59;3.67;;;1.30;;
12350;SDS011;6240;51.538;7.696;2022-10-03T16:06:29;6.43;;;1.67;;
12350;SDS011;6240;51.538;7.696;2022-10-03T16:08:58;4.88;;;1.35;;
12350;SDS011;6240;51.538;7.696;2022-10-03T16:11:30;3.60;;;1.60;;
12350;SDS011;6240;51.538;7.696;2022-10-03T16:14:06;4.70;;;1.60;;
12350;SDS011;6240;51.538;7.696;2022-10-03T16:16:37;3.77;;;1.60;;
12350;SDS011;6240;51.538;7.696;2022-10-03T16:19:18;5.33;;;2.07;;
12350;SDS011;6240;51.538;7.696;2022-10-03T16:21:47;5.53;;;2.07;;
12350;SDS011;6240;51.538;7.696;2022-10-03T16:24:18;4.93;;;1.90;;
12350;SDS011;6240;51.538;7.696;2022-10-03T16:26:50;6.30;;;2.17;;
12350;SDS011;6240;51.538;7.696;2022-10-03T16:29:20;3.70;;;1.90;;
12350;SDS011;6240;51.538;7.696;2022-10-03T16:31:49;4.30;;;1.80;;
12350;SDS011;6240;51.538;7.696;2022-10-03T16:34:19;4.60;;;2.37;;
12350;SDS011;6240;51.538;7.696;2022-10-03T16:36:55;7.93;;;2.42;;
12350;SDS011;6240;51.538;7.696;2022-10-03T16:39:27;4.93;;;2.20;;
12350;SDS011;6240;51.538;7.696;2022-10-03T16:41:59;6.53;;;2.20;;
12350;SDS011;6240;51.538;7.696;2022-10-03T16:44:31;10.30;;;2.07;;
12350;SDS011;6240;51.538;7.696;2022-10-03T16:47:02;5.70;;;2.00;;
12350;SDS011;6240;51.538;7.696;2022-10-03T16:49:36;9.97;;;2.43;;
12350;SDS011;6240;51.538;7.696;2022-10-03T16:52:28;5.77;;;1.90;;
12350;SDS011;6240;51.538;7.696;2022-10-03T16:54:57;4.47;;;1.90;;
12350;SDS011;6240;51.538;7.696;2022-10-03T16:57:28;7.27;;;2.10;;
12350;SDS011;6240;51.538;7.696;2022-10-03T17:00:00;5.83;;;2.37;;
12350;SDS011;6240;51.538;7.696;2022-10-03T17:02:33;6.63;;;2.43;;
12350;SDS011;6240;51.538;7.696;2022-10-03T17:05:05;10.03;;;2.50;;
12350;SDS011;6240;51.538;7.696;2022-10-03T17:07:38;7.57;;;2.73;;
12350;SDS011;6240;51.538;7.696;2022-10-03T17:10:16;6.00;;;2.80;;
12350;SDS011;6240;51.538;7.696;2022-10-03T17:12:46;6.70;;;3.40;;
12350;SDS011;6240;51.538;7.696;2022-10-03T17:15:18;5.27;;;3.10;;
12350;SDS011;6240;51.538;7.696;2022-10-03T17:17:47;6.30;;;3.50;;
12350;SDS011;6240;51.538;7.696;2022-10-03T17:20:21;7.90;;;3.80;;
12350;SDS011;6240;51.538;7.696;2022-10-03T17:22:51;5.77;;;2.90;;
12350;SDS011;6240;51.538;7.696;2022-10-03T17:25:30;4.27;;;2.80;;
12350;SDS011;6240;51.538;7.696;2022-10-03T17:28:01;7.60;;;3.50;;
12350;SDS011;6240;51.538;7.696;2022-10-03T17:30:31;4.93;;;3.30;;
12350;SDS011;6240;51.538;7.696;2022-10-03T17:32:59;4.27;;;3.30;;
12350;SDS011;6240;51.538;7.696;2022-10-03T17:35:30;7.80;;;3.60;;
12350;SDS011;6240;51.538;7.696;2022-10-03T17:38:04;7.67;;;3.30;;
12350;SDS011;6240;51.538;7.696;2022-10-03T17:40:50;6.87;;;3.90;;
12350;SDS011;6240;51.538;7.696;2022-10-03T17:43:27;7.03;;;3.70;;
12350;SDS011;6240;51.538;7.696;2022-10-03T17:46:00;9.67;;;4.40;;
12350;SDS011;6240;51.538;7.696;2022-10-03T17:48:32;9.50;;;4.30;;
12350;SDS011;6240;51.538;7.696;2022-10-03T17:51:13;9.27;;;4.27;;
12350;SDS011;6240;51.538;7.696;2022-10-03T17:53:47;7.70;;;4.80;;
12350;SDS011;6240;51.538;7.696;2022-10-03T17:56:16;10.83;;;4.53;;
12350;SDS011;6240;51.538;7.696;2022-10-03T17:58:47;10.33;;;4.33;;
12350;SDS011;6240;51.538;7.696;2022-10-03T18:01:16;10.53;;;4.53;;